Petersburg, AK

5:01 AM AKDT on September 16, 2014 (GMT -0800)
RAWS KAKE AK US | Change Station
CLOSE
Current Station
Personal Weather Station
Location: Kake, AK
Elevation: 399 ft
Nearby Weather Stations
Active Advisory: Dense Fog Advisory

Elev 399 ft 56.97 °N, 133.66 °W | Updated 1 hour ago

Overcast
Overcast
47 °F
Feels Like 47 °F
N
0
Wind Variable Wind from North
Gusts 1.0 mph

Today
High -- | Low -- °F
--% Chance of Precip.
Yesterday
High -- | Low -- °F
Precip. -- in
6:27 AM 7:09 PM
Last Quarter, 46% visible
Pressure 29.91 in
Visibility 0.5 miles
Clouds Overcast 300 ft
Windchill 47 °F
Dew Point 47 °F
Humidity 100%
Rainfall 0.00 in
Snow Depth 0 in , 4 in , 0 in
UV 0 out of 12
Pollen Not available.
Air Quality Not available.
Flu Activity Not available.
METAR PAFE 161256Z AUTO 00000KT 1/2SM OVC003 10/09 A2991 RMK AO1

More Conditions Fewer Conditions

Pressure 29.91 in
Visibility 0.5 miles
Clouds Overcast 300 ft
Windchill 47 °F
Dew Point 47 °F
Humidity 100%
Rainfall 0.00 in
Snow Depth 0 in , 4 in , 0 in
UV 0 out of 12
Pollen Not available.
Air Quality Not available.
Flu Activity Not available.
METAR PAFE 161256Z AUTO 00000KT 1/2SM OVC003 10/09 A2991 RMK AO1

More Conditions Fewer Conditions

10-Day Weather Forecast

Almanac

Astronomy

Sep. 16, 2014 Rise Set
Actual Time 6:27 AM AKDT 7:09 PM AKDT
Civil Twilight 5:49 AM AKDT 7:48 PM AKDT
Nautical Twilight 5:02 AM AKDT 8:34 PM AKDT
Astronomical Twilight 4:11 AM AKDT 9:25 PM AKDT
Moon 11:45 PM AKDT 3:30 PM AKDT
Length of Visible Light 13h 58m
Length of Day
12h 41m
Tomorrow will be 4m 47s shorter.
Last Quarter, 46% of the Moon is Illuminated
Today
Last Quarter
Sep 24
New
Oct 1
First Quarter
Oct 8
Full
Oct 15
Last Quarter

Today's Extremes

State Highs State Lows

Community

WunderPhotos

Upload Photos

1,753,759 photos uploaded!

Nearby

Snow Depth

Station Depth Elevation
Upper Tsaina River 0 in 1750 ft
MF Bradley River 4 in 2300 ft
Eagle Summit 0 in 3650 ft
Susitna Valley High 109 in 375 ft
Summit Creek 0 in 1400 ft

Earthquake Activity

City Distance Mag. Time & Date
No recent earthquake activity has been reported nearby.
Minimum magnitude displayed is 2.5.

Coastal Water Temperatures

Place Temperature
No Stations Reporting

Nearby Weather Stations